sensor_id;sensor_type;location;lat;lon;timestamp;P1;durP1;ratioP1;P2;durP2;ratioP2
11893;SDS011;6006;49.696;8.662;2023-02-28T00:01:29;1.90;;;1.20;;
11893;SDS011;6006;49.696;8.662;2023-02-28T00:03:57;1.53;;;1.33;;
11893;SDS011;6006;49.696;8.662;2023-02-28T00:06:24;1.47;;;1.37;;
11893;SDS011;6006;49.696;8.662;2023-02-28T00:08:51;2.80;;;1.37;;
11893;SDS011;6006;49.696;8.662;2023-02-28T00:11:18;1.60;;;1.50;;
11893;SDS011;6006;49.696;8.662;2023-02-28T00:13:46;1.93;;;1.40;;
11893;SDS011;6006;49.696;8.662;2023-02-28T00:16:16;1.77;;;1.37;;
11893;SDS011;6006;49.696;8.662;2023-02-28T00:18:45;1.50;;;1.40;;
11893;SDS011;6006;49.696;8.662;2023-02-28T00:21:13;1.50;;;1.40;;
11893;SDS011;6006;49.696;8.662;2023-02-28T00:23:41;2.17;;;1.40;;
11893;SDS011;6006;49.696;8.662;2023-02-28T00:26:08;1.77;;;1.40;;
11893;SDS011;6006;49.696;8.662;2023-02-28T00:28:35;1.60;;;1.50;;
11893;SDS011;6006;49.696;8.662;2023-02-28T00:31:02;1.70;;;1.60;;
11893;SDS011;6006;49.696;8.662;2023-02-28T00:33:31;1.87;;;1.40;;
11893;SDS011;6006;49.696;8.662;2023-02-28T00:36:05;1.60;;;1.47;;
11893;SDS011;6006;49.696;8.662;2023-02-28T00:38:33;1.60;;;1.50;;
11893;SDS011;6006;49.696;8.662;2023-02-28T00:41:00;1.60;;;1.33;;
11893;SDS011;6006;49.696;8.662;2023-02-28T00:43:29;1.60;;;1.50;;
11893;SDS011;6006;49.696;8.662;2023-02-28T00:45:57;2.13;;;1.50;;
11893;SDS011;6006;49.696;8.662;2023-02-28T00:48:24;1.63;;;1.53;;
11893;SDS011;6006;49.696;8.662;2023-02-28T00:50:53;1.70;;;1.60;;
11893;SDS011;6006;49.696;8.662;2023-02-28T00:53:20;2.93;;;1.87;;
11893;SDS011;6006;49.696;8.662;2023-02-28T00:55:47;1.50;;;1.40;;
11893;SDS011;6006;49.696;8.662;2023-02-28T00:58:14;2.10;;;1.80;;
11893;SDS011;6006;49.696;8.662;2023-02-28T01:00:41;2.33;;;1.90;;
11893;SDS011;6006;49.696;8.662;2023-02-28T01:03:08;2.13;;;1.60;;
11893;SDS011;6006;49.696;8.662;2023-02-28T01:05:35;1.53;;;1.43;;
11893;SDS011;6006;49.696;8.662;2023-02-28T01:08:03;1.70;;;1.60;;
11893;SDS011;6006;49.696;8.662;2023-02-28T01:10:31;1.90;;;1.70;;
11893;SDS011;6006;49.696;8.662;2023-02-28T01:12:58;1.60;;;1.37;;
11893;SDS011;6006;49.696;8.662;2023-02-28T01:15:25;1.70;;;1.60;;
11893;SDS011;6006;49.696;8.662;2023-02-28T01:17:52;1.80;;;1.70;;
11893;SDS011;6006;49.696;8.662;2023-02-28T01:20:18;1.93;;;1.60;;
11893;SDS011;6006;49.696;8.662;2023-02-28T01:22:46;2.03;;;1.73;;
11893;SDS011;6006;49.696;8.662;2023-02-28T01:25:14;2.90;;;1.73;;
11893;SDS011;6006;49.696;8.662;2023-02-28T01:27:41;3.27;;;1.73;;
11893;SDS011;6006;49.696;8.662;2023-02-28T01:30:08;2.27;;;1.80;;
11893;SDS011;6006;49.696;8.662;2023-02-28T01:32:36;2.17;;;2.07;;
11893;SDS011;6006;49.696;8.662;2023-02-28T01:35:03;1.90;;;1.70;;
11893;SDS011;6006;49.696;8.662;2023-02-28T01:37:31;2.40;;;1.60;;
11893;SDS011;6006;49.696;8.662;2023-02-28T01:39:57;1.83;;;1.73;;
11893;SDS011;6006;49.696;8.662;2023-02-28T01:42:26;1.90;;;1.77;;
11893;SDS011;6006;49.696;8.662;2023-02-28T01:47:44;2.40;;;1.93;;
11893;SDS011;6006;49.696;8.662;2023-02-28T01:50:12;1.77;;;1.67;;
11893;SDS011;6006;49.696;8.662;2023-02-28T01:52:42;1.70;;;1.60;;
11893;SDS011;6006;49.696;8.662;2023-02-28T01:55:10;1.97;;;1.87;;
11893;SDS011;6006;49.696;8.662;2023-02-28T01:57:40;1.60;;;1.50;;
11893;SDS011;6006;49.696;8.662;2023-02-28T02:00:12;2.37;;;1.80;;
11893;SDS011;6006;49.696;8.662;2023-02-28T02:02:40;2.13;;;1.50;;
11893;SDS011;6006;49.696;8.662;2023-02-28T02:05:10;1.80;;;1.70;;
11893;SDS011;6006;49.696;8.662;2023-02-28T02:07:40;3.87;;;2.30;;
11893;SDS011;6006;49.696;8.662;2023-02-28T02:10:11;2.00;;;1.80;;
11893;SDS011;6006;49.696;8.662;2023-02-28T02:13:03;1.83;;;1.73;;
11893;SDS011;6006;49.696;8.662;2023-02-28T02:16:10;2.00;;;1.77;;
11893;SDS011;6006;49.696;8.662;2023-02-28T02:18:44;1.77;;;1.67;;
11893;SDS011;6006;49.696;8.662;2023-02-28T02:21:17;2.03;;;1.57;;
11893;SDS011;6006;49.696;8.662;2023-02-28T02:27:02;2.00;;;1.60;;
11893;SDS011;6006;49.696;8.662;2023-02-28T02:29:42;1.67;;;1.57;;
11893;SDS011;6006;49.696;8.662;2023-02-28T02:32:40;1.80;;;1.70;;
11893;SDS011;6006;49.696;8.662;2023-02-28T02:35:22;2.10;;;1.83;;
11893;SDS011;6006;49.696;8.662;2023-02-28T02:37:55;1.90;;;1.80;;
11893;SDS011;6006;49.696;8.662;2023-02-28T02:40:30;2.20;;;2.00;;
11893;SDS011;6006;49.696;8.662;2023-02-28T02:43:02;1.57;;;1.47;;
11893;SDS011;6006;49.696;8.662;2023-02-28T02:45:33;1.70;;;1.60;;
11893;SDS011;6006;49.696;8.662;2023-02-28T02:48:05;2.10;;;1.90;;
11893;SDS011;6006;49.696;8.662;2023-02-28T02:50:36;2.13;;;1.93;;
11893;SDS011;6006;49.696;8.662;2023-02-28T02:53:06;2.10;;;1.90;;
11893;SDS011;6006;49.696;8.662;2023-02-28T02:55:35;2.13;;;1.87;;
11893;SDS011;6006;49.696;8.662;2023-02-28T02:58:07;1.73;;;1.63;;
11893;SDS011;6006;49.696;8.662;2023-02-28T03:00:39;1.97;;;1.80;;
11893;SDS011;6006;49.696;8.662;2023-02-28T03:03:09;2.33;;;1.73;;
11893;SDS011;6006;49.696;8.662;2023-02-28T03:05:41;1.97;;;1.77;;
11893;SDS011;6006;49.696;8.662;2023-02-28T03:08:12;2.83;;;1.90;;
11893;SDS011;6006;49.696;8.662;2023-02-28T03:10:40;1.77;;;1.67;;
11893;SDS011;6006;49.696;8.662;2023-02-28T03:13:13;3.13;;;1.80;;
11893;SDS011;6006;49.696;8.662;2023-02-28T03:16:16;2.17;;;1.70;;
11893;SDS011;6006;49.696;8.662;2023-02-28T03:18:56;1.87;;;1.77;;
11893;SDS011;6006;49.696;8.662;2023-02-28T03:21:32;2.67;;;1.93;;
11893;SDS011;6006;49.696;8.662;2023-02-28T03:24:04;3.57;;;1.90;;
11893;SDS011;6006;49.696;8.662;2023-02-28T03:26:36;2.47;;;1.93;;
11893;SDS011;6006;49.696;8.662;2023-02-28T03:29:10;2.93;;;2.00;;
11893;SDS011;6006;49.696;8.662;2023-02-28T03:31:43;2.97;;;2.07;;
11893;SDS011;6006;49.696;8.662;2023-02-28T03:34:16;2.33;;;1.70;;
11893;SDS011;6006;49.696;8.662;2023-02-28T03:36:48;4.23;;;2.00;;
11893;SDS011;6006;49.696;8.662;2023-02-28T03:39:19;2.20;;;2.10;;
11893;SDS011;6006;49.696;8.662;2023-02-28T03:41:50;2.47;;;2.20;;
11893;SDS011;6006;49.696;8.662;2023-02-28T03:44:21;2.53;;;2.10;;
11893;SDS011;6006;49.696;8.662;2023-02-28T03:46:52;2.97;;;2.10;;
11893;SDS011;6006;49.696;8.662;2023-02-28T03:49:25;1.93;;;1.53;;
11893;SDS011;6006;49.696;8.662;2023-02-28T03:51:58;1.83;;;1.60;;
11893;SDS011;6006;49.696;8.662;2023-02-28T03:54:29;3.70;;;1.87;;
11893;SDS011;6006;49.696;8.662;2023-02-28T03:56:59;2.90;;;2.03;;
11893;SDS011;6006;49.696;8.662;2023-02-28T03:59:33;1.90;;;1.73;;
11893;SDS011;6006;49.696;8.662;2023-02-28T04:02:02;3.47;;;1.90;;
11893;SDS011;6006;49.696;8.662;2023-02-28T04:04:29;1.70;;;1.60;;
11893;SDS011;6006;49.696;8.662;2023-02-28T04:07:02;2.00;;;1.90;;
11893;SDS011;6006;49.696;8.662;2023-02-28T04:09:30;2.07;;;1.77;;
11893;SDS011;6006;49.696;8.662;2023-02-28T04:11:58;2.57;;;2.00;;
11893;SDS011;6006;49.696;8.662;2023-02-28T04:14:25;2.40;;;1.87;;
11893;SDS011;6006;49.696;8.662;2023-02-28T04:16:52;2.20;;;2.00;;
11893;SDS011;6006;49.696;8.662;2023-02-28T04:19:19;3.63;;;2.30;;
11893;SDS011;6006;49.696;8.662;2023-02-28T04:21:47;2.10;;;2.00;;
11893;SDS011;6006;49.696;8.662;2023-02-28T04:24:18;3.93;;;1.93;;
11893;SDS011;6006;49.696;8.662;2023-02-28T04:26:46;2.27;;;2.10;;
11893;SDS011;6006;49.696;8.662;2023-02-28T04:29:19;2.17;;;1.73;;
11893;SDS011;6006;49.696;8.662;2023-02-28T04:31:48;2.27;;;2.07;;
11893;SDS011;6006;49.696;8.662;2023-02-28T04:34:16;2.30;;;2.10;;
11893;SDS011;6006;49.696;8.662;2023-02-28T04:36:44;2.30;;;2.10;;
11893;SDS011;6006;49.696;8.662;2023-02-28T04:39:11;2.00;;;1.90;;
11893;SDS011;6006;49.696;8.662;2023-02-28T04:41:39;2.57;;;2.37;;
11893;SDS011;6006;49.696;8.662;2023-02-28T04:44:06;2.30;;;2.10;;
11893;SDS011;6006;49.696;8.662;2023-02-28T04:46:33;2.57;;;1.83;;
11893;SDS011;6006;49.696;8.662;2023-02-28T04:49:00;2.20;;;2.10;;
11893;SDS011;6006;49.696;8.662;2023-02-28T04:51:27;2.70;;;2.40;;
11893;SDS011;6006;49.696;8.662;2023-02-28T04:53:54;2.37;;;2.10;;
11893;SDS011;6006;49.696;8.662;2023-02-28T04:56:20;1.90;;;1.80;;
11893;SDS011;6006;49.696;8.662;2023-02-28T04:58:49;2.23;;;2.03;;
11893;SDS011;6006;49.696;8.662;2023-02-28T05:01:19;2.50;;;2.30;;
11893;SDS011;6006;49.696;8.662;2023-02-28T05:03:49;2.63;;;2.43;;
11893;SDS011;6006;49.696;8.662;2023-02-28T05:06:16;2.30;;;2.10;;
11893;SDS011;6006;49.696;8.662;2023-02-28T05:08:43;2.60;;;2.40;;
11893;SDS011;6006;49.696;8.662;2023-02-28T05:11:13;3.60;;;3.00;;
11893;SDS011;6006;49.696;8.662;2023-02-28T05:13:42;2.90;;;2.70;;
11893;SDS011;6006;49.696;8.662;2023-02-28T05:16:11;2.80;;;2.50;;
11893;SDS011;6006;49.696;8.662;2023-02-28T05:18:38;2.77;;;2.57;;
11893;SDS011;6006;49.696;8.662;2023-02-28T05:21:05;3.13;;;2.50;;
11893;SDS011;6006;49.696;8.662;2023-02-28T05:23:32;3.03;;;2.37;;
11893;SDS011;6006;49.696;8.662;2023-02-28T05:25:59;2.03;;;1.93;;
11893;SDS011;6006;49.696;8.662;2023-02-28T05:28:26;3.00;;;2.27;;
11893;SDS011;6006;49.696;8.662;2023-02-28T05:30:52;2.20;;;2.00;;
11893;SDS011;6006;49.696;8.662;2023-02-28T05:33:21;2.93;;;2.20;;
11893;SDS011;6006;49.696;8.662;2023-02-28T05:35:48;2.57;;;2.20;;
11893;SDS011;6006;49.696;8.662;2023-02-28T05:38:14;2.30;;;2.20;;
11893;SDS011;6006;49.696;8.662;2023-02-28T05:40:42;3.13;;;2.83;;
11893;SDS011;6006;49.696;8.662;2023-02-28T05:43:10;3.90;;;2.57;;
11893;SDS011;6006;49.696;8.662;2023-02-28T05:45:37;3.07;;;2.77;;
11893;SDS011;6006;49.696;8.662;2023-02-28T05:48:04;2.87;;;2.43;;
11893;SDS011;6006;49.696;8.662;2023-02-28T05:50:33;2.30;;;2.10;;
11893;SDS011;6006;49.696;8.662;2023-02-28T05:53:00;3.83;;;3.00;;
11893;SDS011;6006;49.696;8.662;2023-02-28T05:55:27;2.53;;;2.33;;
11893;SDS011;6006;49.696;8.662;2023-02-28T05:57:54;2.70;;;2.50;;
11893;SDS011;6006;49.696;8.662;2023-02-28T06:00:21;4.67;;;2.53;;
11893;SDS011;6006;49.696;8.662;2023-02-28T06:02:48;3.03;;;2.33;;
11893;SDS011;6006;49.696;8.662;2023-02-28T06:05:17;2.23;;;2.10;;
11893;SDS011;6006;49.696;8.662;2023-02-28T06:07:45;3.60;;;2.50;;
11893;SDS011;6006;49.696;8.662;2023-02-28T06:10:12;3.73;;;2.60;;
11893;SDS011;6006;49.696;8.662;2023-02-28T06:12:40;2.50;;;2.17;;
11893;SDS011;6006;49.696;8.662;2023-02-28T06:15:09;2.60;;;2.40;;
11893;SDS011;6006;49.696;8.662;2023-02-28T06:17:39;2.53;;;2.20;;
11893;SDS011;6006;49.696;8.662;2023-02-28T06:20:07;2.57;;;2.30;;
11893;SDS011;6006;49.696;8.662;2023-02-28T06:22:34;2.43;;;2.20;;
11893;SDS011;6006;49.696;8.662;2023-02-28T06:25:03;2.77;;;2.50;;
11893;SDS011;6006;49.696;8.662;2023-02-28T06:27:31;2.90;;;2.13;;
11893;SDS011;6006;49.696;8.662;2023-02-28T06:29:59;2.73;;;2.53;;
11893;SDS011;6006;49.696;8.662;2023-02-28T06:32:26;2.73;;;2.37;;
11893;SDS011;6006;49.696;8.662;2023-02-28T06:34:53;2.47;;;2.27;;
11893;SDS011;6006;49.696;8.662;2023-02-28T06:37:20;3.73;;;2.50;;
11893;SDS011;6006;49.696;8.662;2023-02-28T06:39:46;2.20;;;2.10;;
11893;SDS011;6006;49.696;8.662;2023-02-28T06:42:15;3.93;;;2.53;;
11893;SDS011;6006;49.696;8.662;2023-02-28T06:44:41;4.17;;;2.50;;
11893;SDS011;6006;49.696;8.662;2023-02-28T06:47:08;4.47;;;3.70;;
11893;SDS011;6006;49.696;8.662;2023-02-28T06:49:35;4.40;;;3.53;;
11893;SDS011;6006;49.696;8.662;2023-02-28T06:52:04;3.00;;;2.80;;
11893;SDS011;6006;49.696;8.662;2023-02-28T06:54:31;3.40;;;3.10;;
11893;SDS011;6006;49.696;8.662;2023-02-28T06:56:58;3.90;;;3.07;;
11893;SDS011;6006;49.696;8.662;2023-02-28T06:59:26;3.30;;;2.97;;
11893;SDS011;6006;49.696;8.662;2023-02-28T07:01:53;2.80;;;2.47;;
11893;SDS011;6006;49.696;8.662;2023-02-28T07:04:21;3.93;;;2.97;;
11893;SDS011;6006;49.696;8.662;2023-02-28T07:06:48;4.27;;;2.60;;
11893;SDS011;6006;49.696;8.662;2023-02-28T07:09:15;3.00;;;2.70;;
11893;SDS011;6006;49.696;8.662;2023-02-28T07:11:42;2.70;;;2.50;;
11893;SDS011;6006;49.696;8.662;2023-02-28T07:14:09;3.47;;;2.83;;
11893;SDS011;6006;49.696;8.662;2023-02-28T07:16:37;2.77;;;2.30;;
11893;SDS011;6006;49.696;8.662;2023-02-28T07:19:04;3.37;;;2.77;;
11893;SDS011;6006;49.696;8.662;2023-02-28T07:21:30;3.13;;;2.43;;
11893;SDS011;6006;49.696;8.662;2023-02-28T07:23:57;3.23;;;2.50;;
11893;SDS011;6006;49.696;8.662;2023-02-28T07:26:24;2.60;;;2.40;;
11893;SDS011;6006;49.696;8.662;2023-02-28T07:28:51;2.37;;;2.17;;
11893;SDS011;6006;49.696;8.662;2023-02-28T07:31:19;3.60;;;2.37;;
11893;SDS011;6006;49.696;8.662;2023-02-28T07:33:47;3.70;;;2.63;;
11893;SDS011;6006;49.696;8.662;2023-02-28T07:36:15;3.03;;;2.50;;
11893;SDS011;6006;49.696;8.662;2023-02-28T07:38:44;2.20;;;2.00;;
11893;SDS011;6006;49.696;8.662;2023-02-28T07:41:13;2.90;;;2.47;;
11893;SDS011;6006;49.696;8.662;2023-02-28T07:43:40;2.53;;;2.33;;
11893;SDS011;6006;49.696;8.662;2023-02-28T07:46:08;3.17;;;2.20;;
11893;SDS011;6006;49.696;8.662;2023-02-28T07:48:37;2.30;;;2.10;;
11893;SDS011;6006;49.696;8.662;2023-02-28T07:51:05;4.93;;;2.73;;
11893;SDS011;6006;49.696;8.662;2023-02-28T07:53:32;2.00;;;1.90;;
11893;SDS011;6006;49.696;8.662;2023-02-28T07:56:00;2.83;;;2.10;;
11893;SDS011;6006;49.696;8.662;2023-02-28T07:58:28;2.70;;;2.50;;
11893;SDS011;6006;49.696;8.662;2023-02-28T08:00:56;2.93;;;2.20;;
11893;SDS011;6006;49.696;8.662;2023-02-28T08:03:23;2.40;;;2.17;;
11893;SDS011;6006;49.696;8.662;2023-02-28T08:05:50;4.40;;;2.33;;
11893;SDS011;6006;49.696;8.662;2023-02-28T08:08:20;2.13;;;1.93;;
11893;SDS011;6006;49.696;8.662;2023-02-28T08:10:46;2.73;;;2.27;;
11893;SDS011;6006;49.696;8.662;2023-02-28T08:13:13;1.87;;;1.77;;
11893;SDS011;6006;49.696;8.662;2023-02-28T08:15:40;2.57;;;2.37;;
11893;SDS011;6006;49.696;8.662;2023-02-28T08:18:08;3.20;;;2.87;;
11893;SDS011;6006;49.696;8.662;2023-02-28T08:20:35;2.70;;;2.50;;
11893;SDS011;6006;49.696;8.662;2023-02-28T08:23:02;5.53;;;2.57;;
11893;SDS011;6006;49.696;8.662;2023-02-28T08:25:30;3.03;;;2.10;;
11893;SDS011;6006;49.696;8.662;2023-02-28T08:27:57;2.13;;;1.93;;
11893;SDS011;6006;49.696;8.662;2023-02-28T08:30:24;3.73;;;2.20;;
11893;SDS011;6006;49.696;8.662;2023-02-28T08:32:51;2.90;;;2.60;;
11893;SDS011;6006;49.696;8.662;2023-02-28T08:35:18;2.43;;;2.10;;
11893;SDS011;6006;49.696;8.662;2023-02-28T08:37:44;3.07;;;2.30;;
11893;SDS011;6006;49.696;8.662;2023-02-28T08:40:14;1.97;;;1.87;;
11893;SDS011;6006;49.696;8.662;2023-02-28T08:42:44;3.50;;;2.47;;
11893;SDS011;6006;49.696;8.662;2023-02-28T08:45:11;2.80;;;2.37;;
11893;SDS011;6006;49.696;8.662;2023-02-28T08:47:39;2.93;;;2.40;;
11893;SDS011;6006;49.696;8.662;2023-02-28T08:50:06;2.63;;;2.17;;
11893;SDS011;6006;49.696;8.662;2023-02-28T08:52:34;2.37;;;2.17;;
11893;SDS011;6006;49.696;8.662;2023-02-28T08:55:01;3.07;;;2.40;;
11893;SDS011;6006;49.696;8.662;2023-02-28T08:57:28;3.47;;;2.67;;
11893;SDS011;6006;49.696;8.662;2023-02-28T08:59:56;2.67;;;2.47;;
11893;SDS011;6006;49.696;8.662;2023-02-28T09:02:23;3.40;;;2.87;;
11893;SDS011;6006;49.696;8.662;2023-02-28T09:04:50;3.10;;;2.73;;
11893;SDS011;6006;49.696;8.662;2023-02-28T09:07:17;4.67;;;3.07;;
11893;SDS011;6006;49.696;8.662;2023-02-28T09:09:44;3.20;;;2.90;;
11893;SDS011;6006;49.696;8.662;2023-02-28T09:12:19;3.37;;;3.07;;
11893;SDS011;6006;49.696;8.662;2023-02-28T09:14:47;3.70;;;2.93;;
11893;SDS011;6006;49.696;8.662;2023-02-28T09:17:15;3.53;;;3.23;;
11893;SDS011;6006;49.696;8.662;2023-02-28T09:19:42;3.20;;;2.90;;
11893;SDS011;6006;49.696;8.662;2023-02-28T09:22:10;4.10;;;3.00;;
11893;SDS011;6006;49.696;8.662;2023-02-28T09:24:37;3.07;;;2.77;;
11893;SDS011;6006;49.696;8.662;2023-02-28T09:27:05;2.87;;;2.67;;
11893;SDS011;6006;49.696;8.662;2023-02-28T09:29:32;3.43;;;3.13;;
11893;SDS011;6006;49.696;8.662;2023-02-28T09:32:00;3.87;;;3.53;;
11893;SDS011;6006;49.696;8.662;2023-02-28T09:34:29;3.33;;;3.03;;
11893;SDS011;6006;49.696;8.662;2023-02-28T09:36:56;3.73;;;3.27;;
11893;SDS011;6006;49.696;8.662;2023-02-28T09:39:23;3.43;;;3.13;;
11893;SDS011;6006;49.696;8.662;2023-02-28T09:41:52;3.90;;;2.93;;
11893;SDS011;6006;49.696;8.662;2023-02-28T09:44:21;3.20;;;2.90;;
11893;SDS011;6006;49.696;8.662;2023-02-28T09:46:53;3.90;;;3.43;;
11893;SDS011;6006;49.696;8.662;2023-02-28T09:49:25;3.20;;;2.80;;
11893;SDS011;6006;49.696;8.662;2023-02-28T09:52:02;3.10;;;2.80;;
11893;SDS011;6006;49.696;8.662;2023-02-28T09:54:34;8.73;;;3.13;;
11893;SDS011;6006;49.696;8.662;2023-02-28T09:57:05;4.67;;;3.70;;
11893;SDS011;6006;49.696;8.662;2023-02-28T09:59:39;4.30;;;3.17;;
11893;SDS011;6006;49.696;8.662;2023-02-28T10:05:33;3.40;;;3.10;;
11893;SDS011;6006;49.696;8.662;2023-02-28T10:08:05;3.83;;;3.53;;
11893;SDS011;6006;49.696;8.662;2023-02-28T10:10:39;4.30;;;3.00;;
11893;SDS011;6006;49.696;8.662;2023-02-28T10:13:20;4.13;;;3.10;;
11893;SDS011;6006;49.696;8.662;2023-02-28T10:15:51;3.57;;;3.20;;
11893;SDS011;6006;49.696;8.662;2023-02-28T10:18:23;4.27;;;3.20;;
11893;SDS011;6006;49.696;8.662;2023-02-28T10:20:54;3.60;;;3.07;;
11893;SDS011;6006;49.696;8.662;2023-02-28T10:23:24;3.37;;;3.07;;
11893;SDS011;6006;49.696;8.662;2023-02-28T10:25:55;4.00;;;3.37;;
11893;SDS011;6006;49.696;8.662;2023-02-28T10:28:26;4.67;;;3.20;;
11893;SDS011;6006;49.696;8.662;2023-02-28T10:30:56;3.87;;;3.40;;
11893;SDS011;6006;49.696;8.662;2023-02-28T10:33:25;4.17;;;3.60;;
11893;SDS011;6006;49.696;8.662;2023-02-28T10:35:56;4.00;;;3.60;;
11893;SDS011;6006;49.696;8.662;2023-02-28T10:38:24;4.20;;;3.50;;
11893;SDS011;6006;49.696;8.662;2023-02-28T10:40:57;4.63;;;3.63;;
11893;SDS011;6006;49.696;8.662;2023-02-28T10:43:30;6.33;;;3.57;;
11893;SDS011;6006;49.696;8.662;2023-02-28T10:45:58;3.77;;;3.33;;
11893;SDS011;6006;49.696;8.662;2023-02-28T10:48:36;3.67;;;3.30;;
11893;SDS011;6006;49.696;8.662;2023-02-28T10:51:06;5.23;;;3.50;;
11893;SDS011;6006;49.696;8.662;2023-02-28T10:53:36;3.60;;;3.30;;
11893;SDS011;6006;49.696;8.662;2023-02-28T10:56:14;3.67;;;3.20;;
11893;SDS011;6006;49.696;8.662;2023-02-28T10:58:47;3.50;;;3.20;;
11893;SDS011;6006;49.696;8.662;2023-02-28T11:01:19;3.93;;;3.50;;
11893;SDS011;6006;49.696;8.662;2023-02-28T11:03:47;7.20;;;3.77;;
11893;SDS011;6006;49.696;8.662;2023-02-28T11:06:17;4.70;;;3.97;;
11893;SDS011;6006;49.696;8.662;2023-02-28T11:08:49;5.67;;;3.63;;
11893;SDS011;6006;49.696;8.662;2023-02-28T11:11:17;6.33;;;3.70;;
11893;SDS011;6006;49.696;8.662;2023-02-28T11:13:46;4.23;;;3.77;;
11893;SDS011;6006;49.696;8.662;2023-02-28T11:16:15;4.20;;;3.67;;
11893;SDS011;6006;49.696;8.662;2023-02-28T11:18:43;4.40;;;3.70;;
11893;SDS011;6006;49.696;8.662;2023-02-28T11:21:19;6.10;;;3.77;;
11893;SDS011;6006;49.696;8.662;2023-02-28T11:23:50;4.20;;;3.80;;
11893;SDS011;6006;49.696;8.662;2023-02-28T11:26:37;4.47;;;4.07;;
11893;SDS011;6006;49.696;8.662;2023-02-28T11:29:10;3.97;;;3.53;;
11893;SDS011;6006;49.696;8.662;2023-02-28T11:32:00;4.50;;;4.10;;
11893;SDS011;6006;49.696;8.662;2023-02-28T11:34:34;4.40;;;4.00;;
11893;SDS011;6006;49.696;8.662;2023-02-28T11:37:04;4.17;;;3.70;;
11893;SDS011;6006;49.696;8.662;2023-02-28T11:39:35;4.63;;;4.23;;
11893;SDS011;6006;49.696;8.662;2023-02-28T11:45:01;4.57;;;3.80;;
11893;SDS011;6006;49.696;8.662;2023-02-28T11:47:37;4.33;;;3.93;;
11893;SDS011;6006;49.696;8.662;2023-02-28T11:50:21;4.23;;;3.70;;
11893;SDS011;6006;49.696;8.662;2023-02-28T11:53:05;4.57;;;4.10;;
11893;SDS011;6006;49.696;8.662;2023-02-28T11:55:39;4.50;;;4.10;;
11893;SDS011;6006;49.696;8.662;2023-02-28T11:58:14;4.37;;;4.07;;
11893;SDS011;6006;49.696;8.662;2023-02-28T12:00:59;5.27;;;3.93;;
11893;SDS011;6006;49.696;8.662;2023-02-28T12:03:38;4.67;;;4.20;;
11893;SDS011;6006;49.696;8.662;2023-02-28T12:06:14;4.97;;;4.50;;
11893;SDS011;6006;49.696;8.662;2023-02-28T12:08:55;5.07;;;4.57;;
11893;SDS011;6006;49.696;8.662;2023-02-28T12:11:39;5.33;;;4.83;;
11893;SDS011;6006;49.696;8.662;2023-02-28T12:14:20;5.20;;;4.80;;
11893;SDS011;6006;49.696;8.662;2023-02-28T12:17:11;5.60;;;4.03;;
11893;SDS011;6006;49.696;8.662;2023-02-28T12:19:49;4.80;;;4.30;;
11893;SDS011;6006;49.696;8.662;2023-02-28T12:22:29;3.97;;;3.67;;
11893;SDS011;6006;49.696;8.662;2023-02-28T12:27:58;10.90;;;4.70;;
11893;SDS011;6006;49.696;8.662;2023-02-28T12:30:26;5.43;;;4.20;;
11893;SDS011;6006;49.696;8.662;2023-02-28T12:32:56;4.40;;;3.97;;
11893;SDS011;6006;49.696;8.662;2023-02-28T12:35:32;5.07;;;4.17;;
11893;SDS011;6006;49.696;8.662;2023-02-28T12:38:04;4.60;;;4.17;;
11893;SDS011;6006;49.696;8.662;2023-02-28T12:40:41;5.00;;;4.40;;
11893;SDS011;6006;49.696;8.662;2023-02-28T12:43:12;4.90;;;4.50;;
11893;SDS011;6006;49.696;8.662;2023-02-28T12:45:42;5.43;;;4.57;;
11893;SDS011;6006;49.696;8.662;2023-02-28T12:48:14;4.67;;;4.10;;
11893;SDS011;6006;49.696;8.662;2023-02-28T12:50:44;4.93;;;4.20;;
11893;SDS011;6006;49.696;8.662;2023-02-28T12:53:14;4.60;;;4.20;;
11893;SDS011;6006;49.696;8.662;2023-02-28T12:55:50;4.17;;;3.77;;
11893;SDS011;6006;49.696;8.662;2023-02-28T12:58:27;4.53;;;4.00;;
11893;SDS011;6006;49.696;8.662;2023-02-28T13:01:04;5.50;;;4.10;;
11893;SDS011;6006;49.696;8.662;2023-02-28T13:03:44;4.63;;;4.23;;
11893;SDS011;6006;49.696;8.662;2023-02-28T13:06:28;4.37;;;3.97;;
11893;SDS011;6006;49.696;8.662;2023-02-28T13:09:15;7.33;;;4.50;;
11893;SDS011;6006;49.696;8.662;2023-02-28T13:11:46;4.90;;;4.40;;
11893;SDS011;6006;49.696;8.662;2023-02-28T13:14:24;4.63;;;3.93;;
11893;SDS011;6006;49.696;8.662;2023-02-28T13:16:59;5.17;;;4.67;;
11893;SDS011;6006;49.696;8.662;2023-02-28T13:19:29;5.70;;;4.20;;
11893;SDS011;6006;49.696;8.662;2023-02-28T13:21:58;4.30;;;3.90;;
11893;SDS011;6006;49.696;8.662;2023-02-28T13:24:37;4.20;;;3.80;;
11893;SDS011;6006;49.696;8.662;2023-02-28T13:33:17;5.03;;;3.80;;
11893;SDS011;6006;49.696;8.662;2023-02-28T13:35:50;5.07;;;4.67;;
11893;SDS011;6006;49.696;8.662;2023-02-28T13:38:38;5.80;;;4.30;;
11893;SDS011;6006;49.696;8.662;2023-02-28T13:44:10;7.03;;;4.17;;
11893;SDS011;6006;49.696;8.662;2023-02-28T13:49:39;5.47;;;3.80;;
11893;SDS011;6006;49.696;8.662;2023-02-28T13:52:07;5.10;;;4.17;;
11893;SDS011;6006;49.696;8.662;2023-02-28T13:54:44;6.00;;;3.97;;
11893;SDS011;6006;49.696;8.662;2023-02-28T13:57:42;4.57;;;4.17;;
11893;SDS011;6006;49.696;8.662;2023-02-28T14:00:23;4.40;;;4.00;;
11893;SDS011;6006;49.696;8.662;2023-02-28T14:08:36;4.97;;;4.10;;
11893;SDS011;6006;49.696;8.662;2023-02-28T14:11:23;4.87;;;4.00;;
11893;SDS011;6006;49.696;8.662;2023-02-28T14:13:52;5.90;;;4.23;;
11893;SDS011;6006;49.696;8.662;2023-02-28T14:16:21;4.87;;;4.37;;
11893;SDS011;6006;49.696;8.662;2023-02-28T14:18:54;4.43;;;4.03;;
11893;SDS011;6006;49.696;8.662;2023-02-28T14:21:24;5.27;;;3.60;;
11893;SDS011;6006;49.696;8.662;2023-02-28T14:24:13;6.50;;;4.30;;
11893;SDS011;6006;49.696;8.662;2023-02-28T14:27:07;4.70;;;4.20;;
11893;SDS011;6006;49.696;8.662;2023-02-28T14:33:16;6.10;;;4.60;;
11893;SDS011;6006;49.696;8.662;2023-02-28T14:36:02;4.47;;;4.07;;
11893;SDS011;6006;49.696;8.662;2023-02-28T14:38:36;4.93;;;3.97;;
11893;SDS011;6006;49.696;8.662;2023-02-28T14:41:12;5.27;;;4.30;;
11893;SDS011;6006;49.696;8.662;2023-02-28T14:43:53;5.30;;;3.93;;
11893;SDS011;6006;49.696;8.662;2023-02-28T14:46:22;4.90;;;4.40;;
11893;SDS011;6006;49.696;8.662;2023-02-28T14:48:54;4.60;;;4.20;;
11893;SDS011;6006;49.696;8.662;2023-02-28T14:51:22;5.13;;;4.63;;
11893;SDS011;6006;49.696;8.662;2023-02-28T14:53:50;5.10;;;4.60;;
11893;SDS011;6006;49.696;8.662;2023-02-28T14:56:20;4.83;;;4.17;;
11893;SDS011;6006;49.696;8.662;2023-02-28T14:58:52;4.33;;;3.93;;
11893;SDS011;6006;49.696;8.662;2023-02-28T15:01:21;5.50;;;4.73;;
11893;SDS011;6006;49.696;8.662;2023-02-28T15:03:58;4.97;;;4.23;;
11893;SDS011;6006;49.696;8.662;2023-02-28T15:06:27;5.07;;;4.10;;
11893;SDS011;6006;49.696;8.662;2023-02-28T15:09:08;5.10;;;4.40;;
11893;SDS011;6006;49.696;8.662;2023-02-28T15:11:37;6.73;;;4.33;;
11893;SDS011;6006;49.696;8.662;2023-02-28T15:14:06;6.33;;;4.50;;
11893;SDS011;6006;49.696;8.662;2023-02-28T15:16:34;4.87;;;3.97;;
11893;SDS011;6006;49.696;8.662;2023-02-28T15:19:05;5.73;;;4.40;;
11893;SDS011;6006;49.696;8.662;2023-02-28T15:21:41;4.40;;;4.00;;
11893;SDS011;6006;49.696;8.662;2023-02-28T15:24:12;5.27;;;3.90;;
11893;SDS011;6006;49.696;8.662;2023-02-28T15:26:49;4.33;;;3.93;;
11893;SDS011;6006;49.696;8.662;2023-02-28T15:29:19;5.17;;;4.53;;
11893;SDS011;6006;49.696;8.662;2023-02-28T15:31:49;6.30;;;4.90;;
11893;SDS011;6006;49.696;8.662;2023-02-28T15:34:19;4.63;;;4.13;;
11893;SDS011;6006;49.696;8.662;2023-02-28T15:36:48;4.50;;;4.10;;
11893;SDS011;6006;49.696;8.662;2023-02-28T15:39:19;4.90;;;4.43;;
11893;SDS011;6006;49.696;8.662;2023-02-28T15:41:47;8.13;;;4.73;;
11893;SDS011;6006;49.696;8.662;2023-02-28T15:44:15;4.90;;;3.93;;
11893;SDS011;6006;49.696;8.662;2023-02-28T15:46:57;4.40;;;4.00;;
11893;SDS011;6006;49.696;8.662;2023-02-28T15:49:29;4.67;;;3.83;;
11893;SDS011;6006;49.696;8.662;2023-02-28T15:52:00;4.93;;;4.20;;
11893;SDS011;6006;49.696;8.662;2023-02-28T15:54:28;4.40;;;4.00;;
11893;SDS011;6006;49.696;8.662;2023-02-28T15:56:57;4.80;;;3.97;;
11893;SDS011;6006;49.696;8.662;2023-02-28T15:59:27;4.40;;;3.93;;